Time;durP1;ratioP1;P1;durP2;ratioP2;P2;SDS_P1;SDS_P2;PMS_P1;PMS_P2;Temp;Humidity;BMP_temperature;BMP_pressure;BME280_temperature;BME280_humidity;BME280_pressure;Samples;Min_cycle;Max_cycle;Signal;HPM_P1;HPM_P2
2022/11/17 00:00:29;;;;;;;26.60;18.40;;;9.10;82.20;;;;;;5076825;28;20040;-72
2022/11/17 00:02:55;;;;;;;26.27;17.67;;;9.20;82.20;;;;;;5093879;28;20036;-72
2022/11/17 00:05:21;;;;;;;26.20;17.58;;;9.20;82.20;;;;;;5076949;28;20587;-73
2022/11/17 00:07:47;;;;;;;25.38;18.33;;;9.20;82.20;;;;;;5076134;28;20055;-73
2022/11/17 00:10:14;;;;;;;24.23;16.92;;;9.20;82.20;;;;;;5060455;28;20434;-73
2022/11/17 00:15:25;;;;;;;24.15;16.77;;;9.20;82.30;;;;;;5088598;28;20438;-73
2022/11/17 00:23:23;;;;;;;24.50;16.73;;;9.20;82.30;;;;;;5090238;28;20053;-73
2022/11/17 00:25:49;;;;;;;28.65;18.08;;;9.20;82.20;;;;;;5073411;28;20094;-73
2022/11/17 00:28:14;;;;;;;25.60;16.52;;;9.30;82.10;;;;;;5076206;28;20463;-73
2022/11/17 00:36:08;;;;;;;22.27;16.48;;;9.30;82.00;;;;;;5078132;28;20391;-73
2022/11/17 00:38:34;;;;;;;24.08;16.90;;;9.30;81.90;;;;;;5092747;28;20111;-73
2022/11/17 00:40:59;;;;;;;23.65;15.75;;;9.30;82.00;;;;;;5092537;28;20067;-73
2022/11/17 00:43:25;;;;;;;20.80;16.17;;;9.30;81.90;;;;;;5092566;28;20085;-73
2022/11/17 00:45:50;;;;;;;20.95;15.32;;;9.40;81.90;;;;;;5075726;28;20040;-73
2022/11/17 00:48:16;;;;;;;25.20;16.95;;;9.40;81.90;;;;;;5075404;28;20043;-73
2022/11/17 00:50:42;;;;;;;24.02;15.52;;;9.40;82.00;;;;;;5092516;28;20032;-73
2022/11/17 00:53:07;;;;;;;19.67;15.57;;;9.40;81.90;;;;;;5074967;28;20125;-73
2022/11/17 00:55:33;;;;;;;23.55;15.75;;;9.40;81.80;;;;;;5059276;28;20376;-73
2022/11/17 00:57:59;;;;;;;22.30;15.50;;;9.40;81.60;;;;;;5092184;28;20085;-73
2022/11/17 01:00:24;;;;;;;21.48;15.18;;;9.40;81.70;;;;;;5075758;28;20121;-73
2022/11/17 01:02:50;;;;;;;22.17;15.32;;;9.40;81.60;;;;;;5059169;28;20036;-73
2022/11/17 01:05:16;;;;;;;22.73;16.33;;;9.40;81.70;;;;;;5091982;28;21722;-73
2022/11/17 01:07:41;;;;;;;23.38;15.90;;;9.50;81.70;;;;;;5075454;28;20138;-73
2022/11/17 01:10:08;;;;;;;21.13;15.13;;;9.40;81.60;;;;;;5075605;28;20082;-73
2022/11/17 01:12:33;;;;;;;22.80;15.63;;;9.40;81.60;;;;;;5075355;28;20073;-74
2022/11/17 01:14:59;;;;;;;21.67;15.07;;;9.40;81.50;;;;;;5075015;28;20066;-74
2022/11/17 01:17:24;;;;;;;24.33;15.20;;;9.50;81.50;;;;;;5075141;28;20105;-73
2022/11/17 01:19:50;;;;;;;20.45;14.85;;;9.40;81.30;;;;;;5075057;28;20036;-73
2022/11/17 01:22:16;;;;;;;20.92;14.63;;;9.50;81.30;;;;;;5075083;28;20050;-73
2022/11/17 01:24:42;;;;;;;17.88;14.43;;;9.50;81.20;;;;;;5074915;28;20071;-73
2022/11/17 01:27:08;;;;;;;21.73;14.05;;;9.50;81.20;;;;;;5091536;28;20040;-73
2022/11/17 01:29:33;;;;;;;20.52;14.63;;;9.50;81.10;;;;;;5092226;28;20043;-73
2022/11/17 01:31:59;;;;;;;20.42;13.75;;;9.50;81.00;;;;;;5091558;28;20429;-73
2022/11/17 01:34:25;;;;;;;18.77;14.30;;;9.60;81.00;;;;;;5091715;28;20036;-73
2022/11/17 01:39:35;;;;;;;20.83;14.98;;;9.50;81.10;;;;;;5092122;28;20039;-73
2022/11/17 01:42:16;;;;;;;23.40;15.32;;;9.50;81.10;;;;;;5091527;28;20483;-73
2022/11/17 01:45:19;;;;;;;19.70;14.35;;;9.50;81.10;;;;;;5074358;28;20120;-73
2022/11/17 01:47:53;;;;;;;19.70;13.95;;;9.50;81.10;;;;;;5090888;28;20055;-74
2022/11/17 01:50:39;;;;;;;19.23;13.80;;;9.50;81.30;;;;;;5091856;28;20376;-74
2022/11/17 01:53:10;;;;;;;21.45;13.82;;;9.50;81.20;;;;;;5074371;28;20391;-73
2022/11/17 01:55:55;;;;;;;21.52;14.43;;;9.50;81.20;;;;;;5074839;28;20062;-74
2022/11/17 01:58:24;;;;;;;;;;;9.50;81.30;;;;;;5091467;28;20491;-73
2022/11/17 02:00:51;;;;;;;18.15;13.10;;;9.40;81.30;;;;;;5074565;28;20279;-73
2022/11/17 02:03:17;;;;;;;22.77;15.35;;;9.40;81.60;;;;;;5091137;28;20032;-73
2022/11/17 02:05:53;;;;;;;19.33;13.95;;;9.40;81.60;;;;;;5090772;28;20486;-74
2022/11/17 02:08:23;;;;;;;19.02;14.20;;;9.40;81.90;;;;;;5091127;28;20090;-73
2022/11/17 02:10:51;;;;;;;21.52;15.60;;;9.40;81.90;;;;;;5074194;28;20039;-73
2022/11/17 02:13:17;;;;;;;19.38;14.07;;;9.40;82.00;;;;;;5074270;28;20124;-73
2022/11/17 02:15:43;;;;;;;21.42;14.50;;;9.40;82.20;;;;;;5057765;28;20036;-73
2022/11/17 02:18:08;;;;;;;17.65;14.85;;;9.30;82.20;;;;;;5057787;28;20044;-73
2022/11/17 02:20:50;;;;;;;19.73;14.82;;;9.40;82.50;;;;;;5055565;28;20041;-73
2022/11/17 02:23:31;;;;;;;23.23;15.50;;;9.30;82.50;;;;;;5091314;28;20079;-72
2022/11/17 02:26:07;;;;;;;22.85;14.70;;;9.30;82.60;;;;;;5083359;28;20039;-73
2022/11/17 02:28:58;;;;;;;21.08;14.48;;;9.30;82.70;;;;;;5091116;28;20514;-73
2022/11/17 02:31:45;;;;;;;19.15;14.00;;;9.30;82.80;;;;;;5071355;28;20671;-71
2022/11/17 02:34:40;;;;;;;22.83;14.40;;;9.20;82.80;;;;;;5071510;28;20036;-71
2022/11/17 02:37:23;;;;;;;20.27;14.40;;;9.20;83.10;;;;;;5078233;28;20066;-71
2022/11/17 02:40:07;;;;;;;23.38;14.93;;;9.20;83.10;;;;;;5090513;28;20391;-71
2022/11/17 02:45:34;;;;;;;22.67;15.82;;;9.20;83.30;;;;;;5087059;28;20101;-71
2022/11/17 02:48:04;;;;;;;20.02;14.52;;;9.20;83.40;;;;;;5090380;28;20044;-71
2022/11/17 02:50:33;;;;;;;20.50;14.85;;;9.20;83.50;;;;;;5074140;28;20071;-71
2022/11/17 02:52:58;;;;;;;20.33;15.38;;;9.20;83.60;;;;;;5090366;28;20040;-71
2022/11/17 02:55:24;;;;;;;21.42;14.32;;;9.20;83.70;;;;;;5090807;28;20544;-72
2022/11/17 02:57:50;;;;;;;20.63;14.60;;;9.20;83.60;;;;;;5090578;28;20036;-71
2022/11/17 03:00:17;;;;;;;20.58;13.98;;;9.20;83.70;;;;;;5068976;28;20096;-71
2022/11/17 03:03:26;;;;;;;20.77;14.63;;;9.20;83.70;;;;;;5090253;28;20032;-71
2022/11/17 03:06:27;;;;;;;18.60;13.82;;;9.20;83.80;;;;;;5072416;28;20548;-71
2022/11/17 03:09:17;;;;;;;20.20;13.60;;;9.20;84.00;;;;;;5073629;28;20036;-71
2022/11/17 03:12:00;;;;;;;20.40;13.77;;;9.20;84.10;;;;;;5090839;28;20093;-71
2022/11/17 03:14:34;;;;;;;18.88;13.73;;;9.20;84.20;;;;;;5090708;28;20040;-71
2022/11/17 03:17:19;;;;;;;18.10;13.10;;;9.20;84.20;;;;;;5092460;28;20557;-71
2022/11/17 03:19:55;;;;;;;;;;;9.20;84.20;;;;;;5089171;28;20055;-71
2022/11/17 03:22:24;;;;;;;18.77;12.25;;;9.20;84.20;;;;;;5094881;28;19916;-71
2022/11/17 03:24:57;;;;;;;19.85;12.38;;;9.20;84.30;;;;;;5076972;28;20036;-72
2022/11/17 03:27:30;;;;;;;18.95;12.63;;;9.20;84.40;;;;;;5094204;28;20543;-71
2022/11/17 03:30:03;;;;;;;18.08;12.95;;;9.20;84.40;;;;;;5094086;28;20043;-71
2022/11/17 03:32:33;;;;;;;16.35;12.73;;;9.30;84.50;;;;;;5093971;28;20032;-71
2022/11/17 03:35:08;;;;;;;16.40;12.02;;;9.20;84.40;;;;;;5077382;28;20105;-71
2022/11/17 03:37:37;;;;;;;18.13;12.00;;;9.30;84.40;;;;;;5076832;28;20119;-71
2022/11/17 03:40:08;;;;;;;18.92;11.38;;;9.30;84.30;;;;;;5076833;28;20040;-71
2022/11/17 03:42:36;;;;;;;16.60;11.77;;;9.30;84.30;;;;;;5094340;28;20475;-71
2022/11/17 03:45:09;;;;;;;15.27;10.65;;;9.30;84.40;;;;;;5076867;28;20495;-71
2022/11/17 03:47:36;;;;;;;16.38;10.68;;;9.30;84.40;;;;;;5093079;28;20044;-72
2022/11/17 03:50:17;;;;;;;15.02;11.10;;;9.30;84.40;;;;;;5076972;28;20395;-72
2022/11/17 03:52:44;;;;;;;16.88;11.75;;;9.30;84.40;;;;;;5093804;28;20448;-71
2022/11/17 03:55:10;;;;;;;17.85;11.70;;;9.30;84.30;;;;;;5057057;28;20041;-72
2022/11/17 03:57:51;;;;;;;13.90;10.85;;;9.30;84.30;;;;;;5076819;28;20046;-72
2022/11/17 04:00:18;;;;;;;15.10;11.52;;;9.30;84.40;;;;;;5093321;28;20191;-72
2022/11/17 04:02:46;;;;;;;14.82;10.70;;;9.30;84.40;;;;;;5076581;28;20040;-72
2022/11/17 04:05:14;;;;;;;16.20;11.27;;;9.30;84.90;;;;;;5093463;28;20391;-72
2022/11/17 04:07:46;;;;;;;15.27;10.63;;;9.30;84.40;;;;;;5092957;28;20063;-72
2022/11/17 04:10:13;;;;;;;14.68;10.27;;;9.30;84.40;;;;;;5093343;28;20036;-72
2022/11/17 04:18:07;;;;;;;14.65;10.98;;;9.30;84.30;;;;;;5093303;28;20365;-72
2022/11/17 04:20:36;;;;;;;16.38;10.38;;;9.30;84.20;;;;;;5076156;28;20120;-72
2022/11/17 04:23:06;;;;;;;14.45;10.20;;;9.30;84.30;;;;;;5093360;28;20387;-72
2022/11/17 04:28:35;;;;;;;13.30;9.55;;;9.30;84.30;;;;;;5092409;28;20460;-72
2022/11/17 04:31:24;;;;;;;16.20;11.02;;;9.30;84.40;;;;;;5076346;28;20166;-72
2022/11/17 04:34:00;;;;;;;14.57;9.95;;;9.30;84.40;;;;;;5093032;28;20043;-71
2022/11/17 04:36:27;;;;;;;11.48;9.35;;;9.30;84.50;;;;;;5092611;28;20044;-71
2022/11/17 04:38:55;;;;;;;13.73;9.55;;;9.30;84.40;;;;;;5076353;28;20032;-72
2022/11/17 04:44:08;;;;;;;16.25;10.75;;;9.30;84.50;;;;;;5092805;28;20130;-72
2022/11/17 04:46:36;;;;;;;14.65;11.10;;;9.30;84.40;;;;;;5092914;28;20127;-71
2022/11/17 04:49:03;;;;;;;16.88;12.00;;;9.30;84.30;;;;;;5105461;28;20058;-72
2022/11/17 04:51:29;;;;;;;14.25;10.10;;;9.30;84.30;;;;;;5089250;28;20044;-72
2022/11/17 04:53:55;;;;;;;12.18;10.10;;;9.30;84.30;;;;;;5067507;28;20075;-72
2022/11/17 04:56:23;;;;;;;14.00;9.75;;;9.30;84.20;;;;;;5055471;28;20041;-71
2022/11/17 04:58:49;;;;;;;14.63;10.27;;;9.30;84.10;;;;;;5091293;28;20077;-72
2022/11/17 05:01:17;;;;;;;12.43;10.10;;;9.30;84.00;;;;;;5092323;28;20540;-72
2022/11/17 05:03:54;;;;;;;14.23;10.10;;;9.30;83.90;;;;;;5075312;28;20115;-72
2022/11/17 05:06:41;;;;;;;14.02;9.85;;;9.30;84.00;;;;;;5092314;28;20036;-71
2022/11/17 05:09:13;;;;;;;13.80;9.77;;;9.40;83.90;;;;;;5092572;28;20063;-72
2022/11/17 05:14:25;;;;;;;12.57;9.18;;;9.30;83.90;;;;;;5092497;28;20147;-72
2022/11/17 05:17:08;;;;;;;13.00;9.27;;;9.30;83.90;;;;;;5075089;28;20066;-71
2022/11/17 05:19:46;;;;;;;14.35;10.68;;;9.30;83.90;;;;;;5062443;28;20087;-71
2022/11/17 05:24:59;;;;;;;11.32;8.52;;;9.20;83.90;;;;;;5091891;28;20101;-71
2022/11/17 05:27:25;;;;;;;11.68;9.23;;;9.10;84.20;;;;;;5057752;28;20040;-71
2022/11/17 05:29:51;;;;;;;12.15;8.90;;;9.10;83.70;;;;;;5105960;28;20043;-71
2022/11/17 05:32:17;;;;;;;13.63;8.82;;;9.10;83.70;;;;;;5074430;28;20032;-71
2022/11/17 05:34:42;;;;;;;10.27;8.82;;;9.10;83.70;;;;;;5090933;28;20034;-71
2022/11/17 05:37:08;;;;;;;9.95;8.18;;;9.10;83.60;;;;;;5090307;28;20098;-71
2022/11/17 05:39:34;;;;;;;10.38;8.50;;;9.10;83.60;;;;;;5088146;28;20468;-71
2022/11/17 05:41:59;;;;;;;9.80;8.32;;;9.10;84.00;;;;;;5074726;28;20052;-71
2022/11/17 05:44:25;;;;;;;10.05;8.38;;;9.00;83.50;;;;;;5074097;28;20131;-72
2022/11/17 05:46:51;;;;;;;9.90;7.35;;;9.00;83.40;;;;;;5073168;28;20123;-72
2022/11/17 05:49:16;;;;;;;9.38;7.78;;;9.00;83.30;;;;;;5074604;28;20028;-72
2022/11/17 05:51:42;;;;;;;9.88;7.50;;;9.00;83.40;;;;;;5058115;28;20055;-73
2022/11/17 05:54:08;;;;;;;9.00;7.30;;;9.00;83.30;;;;;;5058109;28;20399;-72
2022/11/17 05:56:44;;;;;;;8.40;6.82;;;8.90;83.20;;;;;;5041263;28;20039;-72
2022/11/17 05:59:19;;;;;;;7.30;6.57;;;8.90;83.20;;;;;;5090957;28;20055;-72
2022/11/17 06:02:00;;;;;;;9.50;7.13;;;8.90;83.20;;;;;;5074398;28;20111;-71
2022/11/17 06:04:25;;;;;;;8.07;7.20;;;8.90;83.30;;;;;;5091352;28;20050;-72
2022/11/17 06:06:53;;;;;;;7.85;6.53;;;8.80;83.20;;;;;;5074276;28;20032;-71
2022/11/17 06:09:18;;;;;;;8.15;6.18;;;8.80;83.30;;;;;;5091329;28;20083;-71
2022/11/17 06:11:44;;;;;;;8.57;6.82;;;8.70;83.20;;;;;;5057646;28;20067;-71
2022/11/17 06:14:10;;;;;;;8.43;6.75;;;8.70;83.20;;;;;;5091232;28;20039;-71
2022/11/17 06:16:41;;;;;;;7.35;6.40;;;8.60;83.20;;;;;;5069907;28;20045;-71
2022/11/17 06:19:14;;;;;;;9.48;6.65;;;8.70;83.40;;;;;;5088693;28;20028;-71
2022/11/17 06:21:40;;;;;;;8.45;6.65;;;8.60;83.50;;;;;;5089769;28;20487;-71
2022/11/17 06:24:07;;;;;;;7.72;6.40;;;8.50;83.40;;;;;;5074119;28;20044;-72
2022/11/17 06:26:33;;;;;;;7.78;6.15;;;8.50;83.50;;;;;;5074224;28;20487;-71
2022/11/17 06:29:02;;;;;;;8.80;6.80;;;8.50;83.50;;;;;;5091207;28;20039;-71
2022/11/17 06:31:27;;;;;;;8.95;7.13;;;8.50;83.60;;;;;;5091115;28;20368;-73
2022/11/17 06:33:53;;;;;;;9.00;7.13;;;8.50;83.60;;;;;;5057620;28;20103;-73
2022/11/17 06:36:19;;;;;;;8.48;7.05;;;8.50;83.70;;;;;;5090852;28;20448;-73
2022/11/17 06:38:45;;;;;;;10.18;7.68;;;8.50;83.70;;;;;;5084564;28;20036;-73
2022/11/17 06:41:10;;;;;;;8.90;7.18;;;8.40;83.80;;;;;;5091020;28;20085;-73
2022/11/17 06:43:36;;;;;;;9.65;7.00;;;8.50;83.90;;;;;;5090935;28;20032;-73
2022/11/17 06:46:03;;;;;;;9.23;7.43;;;8.40;84.00;;;;;;5074289;28;20039;-72
2022/11/17 06:48:34;;;;;;;11.57;7.45;;;8.40;84.10;;;;;;5090697;28;20074;-73
2022/11/17 06:51:01;;;;;;;7.63;6.82;;;8.40;84.10;;;;;;5091156;28;20036;-73
2022/11/17 06:53:27;;;;;;;9.98;7.63;;;8.40;84.10;;;;;;5077962;28;20051;-72
2022/11/17 06:56:06;;;;;;;8.48;7.30;;;8.40;84.10;;;;;;5094812;28;20028;-73
2022/11/17 06:58:32;;;;;;;8.60;6.97;;;8.40;84.00;;;;;;5068407;28;20495;-73
2022/11/17 07:01:05;;;;;;;8.40;7.05;;;8.40;84.10;;;;;;5078305;28;20378;-73
2022/11/17 07:03:36;;;;;;;9.30;7.47;;;8.30;83.90;;;;;;5094521;28;20038;-73
2022/11/17 07:06:04;;;;;;;7.95;6.88;;;8.40;84.00;;;;;;5077509;28;20101;-73
2022/11/17 07:08:31;;;;;;;9.40;7.10;;;8.40;84.00;;;;;;5059219;28;20048;-73
2022/11/17 07:11:05;;;;;;;9.35;7.38;;;8.40;84.00;;;;;;5055981;28;20036;-73
2022/11/17 07:13:32;;;;;;;8.27;7.45;;;8.30;83.90;;;;;;5093065;28;20115;-73
2022/11/17 07:16:03;;;;;;;10.48;7.65;;;8.30;83.90;;;;;;5077224;28;20047;-72
2022/11/17 07:18:29;;;;;;;9.15;7.13;;;8.30;84.10;;;;;;5093824;28;20036;-77
2022/11/17 07:20:55;;;;;;;11.07;7.65;;;8.40;84.10;;;;;;5059730;28;20042;-74
2022/11/17 07:23:20;;;;;;;9.45;7.30;;;8.30;84.00;;;;;;5077577;28;20077;-74
2022/11/17 07:25:46;;;;;;;12.90;8.20;;;8.40;84.20;;;;;;5076989;28;20051;-73
2022/11/17 07:28:13;;;;;;;10.27;7.22;;;8.30;84.10;;;;;;5060675;28;20380;-73
2022/11/17 07:30:39;;;;;;;8.23;6.85;;;8.30;84.10;;;;;;5077710;28;20112;-74
2022/11/17 07:33:05;;;;;;;8.45;7.30;;;8.40;84.20;;;;;;5094132;28;20119;-74
2022/11/17 07:35:31;;;;;;;9.82;7.80;;;8.30;84.20;;;;;;5077298;28;20120;-74
2022/11/17 07:37:58;;;;;;;11.80;8.02;;;8.30;84.20;;;;;;5040678;28;20072;-74
2022/11/17 07:40:24;;;;;;;9.00;7.70;;;8.30;84.40;;;;;;5074826;28;20063;-73
2022/11/17 07:42:49;;;;;;;8.52;7.57;;;8.30;84.30;;;;;;5073214;28;20483;-74
2022/11/17 07:45:15;;;;;;;10.15;7.78;;;8.30;84.30;;;;;;5057095;28;20082;-73
2022/11/17 07:47:41;;;;;;;9.15;7.63;;;8.30;84.30;;;;;;5092140;28;20087;-73
2022/11/17 07:50:07;;;;;;;9.13;7.70;;;8.30;84.80;;;;;;5077217;28;20043;-73
2022/11/17 07:52:32;;;;;;;9.35;7.22;;;8.30;84.30;;;;;;5093495;28;20046;-73
2022/11/17 07:54:58;;;;;;;9.18;7.85;;;8.30;84.30;;;;;;5077000;28;20093;-74
2022/11/17 07:57:24;;;;;;;9.15;7.38;;;8.30;84.40;;;;;;5093588;28;20040;-74
2022/11/17 07:59:50;;;;;;;8.25;7.10;;;8.30;84.40;;;;;;5093312;28;20046;-73
2022/11/17 08:02:15;;;;;;;7.65;6.68;;;8.30;84.40;;;;;;5076567;28;20035;-74
2022/11/17 08:04:41;;;;;;;8.30;7.22;;;8.30;84.40;;;;;;5093066;28;20458;-74
2022/11/17 08:07:07;;;;;;;9.20;7.07;;;8.30;84.40;;;;;;5060031;28;20483;-74
2022/11/17 08:09:32;;;;;;;7.72;6.70;;;8.30;84.60;;;;;;5077047;28;20036;-73
2022/11/17 08:11:58;;;;;;;7.95;6.97;;;8.30;84.50;;;;;;5076418;28;20391;-74
2022/11/17 08:14:24;;;;;;;7.65;6.22;;;8.30;84.50;;;;;;5076507;28;20044;-73
2022/11/17 08:16:49;;;;;;;7.57;6.53;;;8.30;84.70;;;;;;5076614;28;20079;-73
2022/11/17 08:19:15;;;;;;;8.10;6.63;;;8.20;84.60;;;;;;5093486;28;20048;-73
2022/11/17 08:21:41;;;;;;;9.60;7.15;;;8.30;84.60;;;;;;5093104;28;20040;-74
2022/11/17 08:24:07;;;;;;;8.77;7.40;;;8.30;84.70;;;;;;5092585;28;20036;-74
2022/11/17 08:26:32;;;;;;;8.57;6.80;;;8.30;84.70;;;;;;5059393;28;20043;-74
2022/11/17 08:29:00;;;;;;;7.50;6.30;;;8.30;84.60;;;;;;5059760;28;20035;-74
2022/11/17 08:31:26;;;;;;;7.35;6.53;;;8.20;84.70;;;;;;5060106;28;20035;-74
2022/11/17 08:33:52;;;;;;;8.50;7.03;;;8.20;84.80;;;;;;5076099;28;20036;-74
2022/11/17 08:36:17;;;;;;;8.30;6.25;;;8.20;84.80;;;;;;5076432;28;20032;-74
2022/11/17 08:38:43;;;;;;;9.07;6.93;;;8.20;84.90;;;;;;5059849;28;20032;-74
2022/11/17 08:41:09;;;;;;;8.00;6.63;;;8.20;84.90;;;;;;5076230;28;20425;-74
2022/11/17 08:43:35;;;;;;;7.53;6.50;;;8.20;85.00;;;;;;5093244;28;20110;-74
2022/11/17 08:46:04;;;;;;;8.60;6.78;;;8.30;85.10;;;;;;5076098;28;20527;-74
2022/11/17 08:48:30;;;;;;;7.90;6.63;;;8.20;85.10;;;;;;5085298;28;20126;-74
2022/11/17 08:50:56;;;;;;;7.30;5.97;;;8.30;85.20;;;;;;5092849;28;20047;-74
2022/11/17 08:53:22;;;;;;;8.70;6.68;;;8.30;85.30;;;;;;5075332;28;20040;-74
2022/11/17 08:55:48;;;;;;;8.45;6.78;;;8.30;85.30;;;;;;5092966;28;20032;-74
2022/11/17 08:58:14;;;;;;;9.02;7.20;;;8.30;85.30;;;;;;5059077;28;20101;-74
2022/11/17 09:00:40;;;;;;;9.40;7.13;;;8.30;85.40;;;;;;5092747;28;20094;-74
2022/11/17 09:03:08;;;;;;;9.25;6.93;;;8.40;85.60;;;;;;5075557;28;20049;-75
2022/11/17 09:05:37;;;;;;;9.80;7.60;;;8.40;85.50;;;;;;5092328;28;20115;-74
2022/11/17 09:08:04;;;;;;;8.60;7.20;;;8.40;85.60;;;;;;5092332;28;20036;-74
2022/11/17 09:10:30;;;;;;;7.80;6.80;;;8.40;85.70;;;;;;5075502;28;20073;-74
2022/11/17 09:12:56;;;;;;;10.30;7.70;;;8.40;85.60;;;;;;5091442;28;20036;-74
2022/11/17 09:15:22;;;;;;;8.82;7.70;;;8.40;85.70;;;;;;5092328;28;20122;-74
2022/11/17 09:17:48;;;;;;;10.30;8.45;;;8.40;85.90;;;;;;5075413;28;21721;-74
2022/11/17 09:20:17;;;;;;;11.85;9.43;;;8.50;86.00;;;;;;5075354;28;20068;-74
2022/11/17 09:22:44;;;;;;;10.25;7.88;;;8.50;86.10;;;;;;5074934;28;20173;-73
2022/11/17 09:25:10;;;;;;;10.75;8.10;;;8.50;86.00;;;;;;5092489;28;20165;-74
2022/11/17 09:27:35;;;;;;;11.85;7.95;;;8.50;86.10;;;;;;5056878;28;20440;-73
2022/11/17 09:30:01;;;;;;;11.68;7.82;;;8.60;86.20;;;;;;5091803;28;20097;-73
2022/11/17 09:32:27;;;;;;;9.02;7.32;;;8.60;86.20;;;;;;5074922;28;20036;-73
2022/11/17 09:34:53;;;;;;;10.27;7.32;;;8.70;86.10;;;;;;5091779;28;20391;-73
2022/11/17 09:37:19;;;;;;;9.00;7.55;;;8.60;86.10;;;;;;5074942;28;20040;-73
2022/11/17 09:39:45;;;;;;;8.32;6.72;;;8.60;86.10;;;;;;5074890;28;20149;-73
2022/11/17 09:42:16;;;;;;;9.57;6.38;;;8.60;86.10;;;;;;5074733;28;20165;-73
2022/11/17 09:45:02;;;;;;;8.93;6.80;;;8.70;86.20;;;;;;5074341;28;20040;-73
2022/11/17 09:47:42;;;;;;;8.80;6.20;;;8.70;86.20;;;;;;5086828;28;20411;-73
2022/11/17 09:50:21;;;;;;;8.35;6.28;;;8.70;86.20;;;;;;5091500;28;20040;-74
2022/11/17 09:52:57;;;;;;;9.05;7.25;;;8.80;86.30;;;;;;5091439;28;20403;-73
2022/11/17 09:55:31;;;;;;;8.43;7.07;;;8.80;86.30;;;;;;5091432;28;20044;-73
2022/11/17 09:58:24;;;;;;;9.27;7.18;;;8.80;86.30;;;;;;5091293;28;20161;-74
2022/11/17 10:00:51;;;;;;;7.80;6.00;;;8.80;86.30;;;;;;5071637;28;20036;-73
2022/11/17 10:03:25;;;;;;;7.22;5.80;;;8.80;86.30;;;;;;5083044;28;20032;-74
2022/11/17 10:05:52;;;;;;;7.38;5.82;;;8.80;86.30;;;;;;5074759;28;20072;-73
2022/11/17 10:08:28;;;;;;;7.97;6.28;;;8.80;86.30;;;;;;5073897;28;20044;-73
2022/11/17 10:10:53;;;;;;;7.63;6.47;;;8.90;86.50;;;;;;5108142;28;20034;-73
2022/11/17 10:13:32;;;;;;;8.55;6.35;;;8.90;86.40;;;;;;5074435;28;20032;-72
2022/11/17 10:16:06;;;;;;;6.88;5.97;;;8.90;86.50;;;;;;5091283;28;20070;-72
2022/11/17 10:18:35;;;;;;;8.57;6.53;;;8.90;86.50;;;;;;5091587;28;20106;-73
2022/11/17 10:21:02;;;;;;;8.27;6.15;;;8.90;86.50;;;;;;5074846;28;20393;-72
2022/11/17 10:23:39;;;;;;;9.18;6.90;;;8.90;86.60;;;;;;5074646;28;20044;-73
2022/11/17 10:26:14;;;;;;;8.25;6.82;;;8.90;86.60;;;;;;5086938;28;20040;-73
2022/11/17 10:28:40;;;;;;;7.55;5.97;;;8.90;86.60;;;;;;5095285;28;20125;-73
2022/11/17 10:31:14;;;;;;;8.32;6.38;;;9.00;86.70;;;;;;5095832;28;20044;-73
2022/11/17 10:33:45;;;;;;;;;;;9.00;86.80;;;;;;5095555;28;20047;-73
2022/11/17 10:36:18;;;;;;;8.88;6.10;;;9.00;86.70;;;;;;5095178;28;19916;-73
2022/11/17 10:38:53;;;;;;;9.13;6.65;;;9.00;86.90;;;;;;5094978;28;20097;-73
2022/11/17 10:41:51;;;;;;;9.68;6.95;;;9.00;87.00;;;;;;5070574;28;20041;-73
2022/11/17 10:44:26;;;;;;;8.20;6.40;;;9.10;87.10;;;;;;5042275;28;20036;-73
2022/11/17 10:46:57;;;;;;;9.48;7.03;;;9.20;87.20;;;;;;5094677;28;20089;-73
2022/11/17 10:49:30;;;;;;;9.90;7.30;;;9.20;87.30;;;;;;5077742;28;20036;-73
2022/11/17 10:52:04;;;;;;;8.90;6.63;;;9.20;87.30;;;;;;5111435;28;20063;-73
2022/11/17 10:54:30;;;;;;;9.13;6.10;;;9.30;87.60;;;;;;5078017;28;20039;-73
2022/11/17 10:56:58;;;;;;;8.95;5.75;;;9.40;87.60;;;;;;5077793;28;20040;-73
2022/11/17 10:59:47;;;;;;;10.02;6.40;;;9.50;87.90;;;;;;5094710;28;20621;-74
2022/11/17 11:02:29;;;;;;;9.60;5.57;;;9.60;88.10;;;;;;5111507;28;20499;-73
2022/11/17 11:05:20;;;;;;;8.77;5.47;;;9.70;88.30;;;;;;5109270;28;20040;-74
2022/11/17 11:07:45;;;;;;;10.90;5.15;;;9.80;88.40;;;;;;5089435;28;20080;-74
2022/11/17 11:10:30;;;;;;;10.05;5.22;;;9.90;88.40;;;;;;5094508;28;20071;-73
2022/11/17 11:12:58;;;;;;;8.52;4.70;;;10.00;88.60;;;;;;5095062;28;20027;-73
2022/11/17 11:15:31;;;;;;;8.40;4.47;;;10.00;88.50;;;;;;5094348;28;20089;-73
2022/11/17 11:17:57;;;;;;;8.35;3.75;;;10.20;88.70;;;;;;5077936;28;20036;-73
2022/11/17 11:20:45;;;;;;;9.82;3.88;;;10.20;88.60;;;;;;5094189;28;20582;-73
2022/11/17 11:23:19;;;;;;;8.13;3.40;;;10.30;88.70;;;;;;5094309;28;20128;-73
2022/11/17 11:25:55;;;;;;;7.35;2.95;;;10.30;88.60;;;;;;5076996;28;20042;-74
2022/11/17 11:28:33;;;;;;;5.50;2.60;;;10.30;88.60;;;;;;5094289;28;20067;-73
2022/11/17 11:31:31;;;;;;;7.95;2.45;;;10.40;88.70;;;;;;5094162;28;20535;-73
2022/11/17 11:34:22;;;;;;;5.55;1.92;;;10.50;88.70;;;;;;5091239;28;20040;-74
2022/11/17 11:37:04;;;;;;;4.60;1.33;;;10.50;88.60;;;;;;5093369;28;20147;-73
2022/11/17 11:39:44;;;;;;;5.22;1.45;;;10.50;88.60;;;;;;5077245;28;20119;-73
2022/11/17 11:42:46;;;;;;;4.30;1.50;;;10.50;88.50;;;;;;5093853;28;20044;-74
2022/11/17 11:45:23;;;;;;;4.70;1.75;;;10.60;88.50;;;;;;5085134;28;20080;-74
2022/11/17 11:48:18;;;;;;;5.85;1.38;;;10.60;88.30;;;;;;5094048;28;20395;-73
2022/11/17 11:50:58;;;;;;;4.57;1.10;;;10.60;88.20;;;;;;5093085;28;20036;-74
2022/11/17 11:53:39;;;;;;;3.58;1.40;;;10.70;88.20;;;;;;5093952;28;20052;-74
2022/11/17 11:56:13;;;;;;;3.58;1.50;;;10.60;87.90;;;;;;5093611;28;20040;-74
2022/11/17 11:58:49;;;;;;;3.40;0.98;;;10.60;87.80;;;;;;5093855;28;20044;-74
2022/11/17 12:01:17;;;;;;;4.78;1.50;;;10.60;87.70;;;;;;5093829;28;20385;-74
2022/11/17 12:04:11;;;;;;;3.35;1.10;;;10.70;87.70;;;;;;5068934;28;20158;-73
2022/11/17 12:07:22;;;;;;;6.50;1.75;;;10.70;87.60;;;;;;5101638;28;20054;-73
2022/11/17 12:10:26;;;;;;;3.63;0.98;;;10.70;87.40;;;;;;5067983;28;20395;-74
2022/11/17 12:12:52;;;;;;;5.47;1.17;;;10.70;87.50;;;;;;5065729;28;20036;-74
2022/11/17 12:15:17;;;;;;;3.17;1.00;;;10.70;87.40;;;;;;5076204;28;20090;-73
2022/11/17 12:17:57;;;;;;;5.18;1.15;;;10.70;87.20;;;;;;5093619;28;20079;-73
2022/11/17 12:20:51;;;;;;;3.00;1.10;;;10.70;87.20;;;;;;5093307;28;20047;-73
2022/11/17 12:23:46;;;;;;;3.13;1.08;;;10.80;87.00;;;;;;5093158;28;20047;-73
2022/11/17 12:26:24;;;;;;;3.30;0.90;;;10.70;86.80;;;;;;5073651;28;20185;-73
2022/11/17 12:29:19;;;;;;;4.40;1.20;;;10.80;86.90;;;;;;5093342;28;20032;-73
2022/11/17 12:31:48;;;;;;;3.47;0.90;;;10.80;86.80;;;;;;5092888;28;20032;-74
2022/11/17 12:34:14;;;;;;;5.88;1.23;;;10.80;86.60;;;;;;5093038;28;20089;-73
2022/11/17 12:36:40;;;;;;;3.03;1.10;;;10.70;86.50;;;;;;5093419;28;20101;-74
2022/11/17 12:39:44;;;;;;;6.65;1.77;;;10.80;86.50;;;;;;5076893;28;20040;-74
2022/11/17 12:42:09;;;;;;;5.20;1.10;;;10.80;86.30;;;;;;5076236;28;20044;-74
2022/11/17 12:44:48;;;;;;;3.40;0.90;;;10.80;86.30;;;;;;5076229;28;20044;-76
2022/11/17 12:47:26;;;;;;;5.40;1.95;;;10.80;86.30;;;;;;5092659;28;20044;-75
2022/11/17 12:50:20;;;;;;;5.35;1.27;;;10.80;86.20;;;;;;5092457;28;20089;-74
2022/11/17 12:53:25;;;;;;;4.67;1.17;;;10.80;86.20;;;;;;5075524;28;20060;-74
2022/11/17 12:56:09;;;;;;;4.97;1.30;;;10.80;86.10;;;;;;5097239;28;20037;-74
2022/11/17 12:58:47;;;;;;;4.28;1.30;;;10.80;86.00;;;;;;5071977;28;20049;-76
2022/11/17 13:01:25;;;;;;;4.40;1.20;;;10.70;86.00;;;;;;5075742;28;20086;-76
2022/11/17 13:04:07;;;;;;;3.28;1.10;;;10.70;86.10;;;;;;5092755;28;20368;-76
2022/11/17 13:06:32;;;;;;;4.90;1.60;;;10.80;86.30;;;;;;5092076;28;20035;-76
2022/11/17 13:09:00;;;;;;;5.00;1.35;;;10.80;86.30;;;;;;5075605;28;20039;-76
2022/11/17 13:11:27;;;;;;;4.57;1.30;;;10.80;86.30;;;;;;5075416;28;20105;-75
2022/11/17 13:14:16;;;;;;;5.30;1.63;;;10.80;86.30;;;;;;5075603;28;20460;-77
2022/11/17 13:16:49;;;;;;;2.45;1.10;;;10.80;86.30;;;;;;5071328;28;20052;-76
2022/11/17 13:19:35;;;;;;;5.32;1.55;;;10.80;86.30;;;;;;5094655;28;20043;-76
2022/11/17 13:22:03;;;;;;;6.07;1.60;;;10.80;86.30;;;;;;5075574;28;20047;-75
2022/11/17 13:24:35;;;;;;;4.47;1.90;;;10.80;86.20;;;;;;5075300;28;20817;-75
2022/11/17 13:27:06;;;;;;;3.67;1.42;;;10.80;86.30;;;;;;5092093;28;20085;-77
2022/11/17 13:29:32;;;;;;;4.60;2.45;;;10.80;86.30;;;;;;5075530;28;20157;-76
2022/11/17 13:32:15;;;;;;;5.28;2.05;;;10.80;86.30;;;;;;5075161;28;20128;-77
2022/11/17 13:34:55;;;;;;;6.20;1.50;;;10.80;86.30;;;;;;5091716;28;20066;-77
2022/11/17 13:37:23;;;;;;;4.05;1.40;;;10.80;86.30;;;;;;5074677;28;20130;-76
2022/11/17 13:39:53;;;;;;;3.47;1.40;;;10.80;86.70;;;;;;5075119;28;20040;-76
2022/11/17 13:42:20;;;;;;;5.22;1.65;;;10.80;86.20;;;;;;5075295;28;20044;-76
2022/11/17 13:44:47;;;;;;;4.05;1.63;;;10.80;86.20;;;;;;5074628;28;20040;-76
2022/11/17 13:47:39;;;;;;;4.95;1.92;;;10.80;86.20;;;;;;5091737;28;20114;-76